Val-Barrette, Canada
Current Conditions -  °F | °C
As of 9:00 PM on Wednesday 17 Dec 2014 (Local Time) from CYND Reporting Station
Light Snow Light Snow  
Wind Chill: 27°   Ceiling: 1100
Heat Index: 32°   Visibility: 3mi
Dew Point: 32°   Wind: 5mph
Humidity: 100%   Direction: 250°WSW
Pressure: 29.78"   Gusts: NA
Location:  46.52°N, 75.35°W
Report Text: CYND 180200Z 25004KT 3SM -SN BR OVC011 00/00 A2978 RMK SC8 LAST OBS / NEXT 18 1200 UTC SLP087
Loading
Personal Weather Stations






























Interactive Weather Map New forecast layout! Learn more

10-Day Weather Forecast

Advertisements
Track Severe Weather on mobile